Time;durP1;ratioP1;P1;durP2;ratioP2;P2;SDS_P1;SDS_P2;PMS_P1;PMS_P2;Temp;Humidity;BMP_temperature;BMP_pressure;BME280_temperature;BME280_humidity;BME280_pressure;Samples;Min_cycle;Max_cycle;Signal;HPM_P1;HPM_P2
2022/07/23 00:01:33;;;;;;;1.70;0.80;;;;;;;15.32;100.00;102014.03;5074500;28;20048;-31
2022/07/23 00:04:01;;;;;;;1.60;0.70;;;;;;;15.31;100.00;102010.41;5074199;28;20062;-31
2022/07/23 00:06:29;;;;;;;1.90;0.80;;;;;;;15.31;100.00;102012.38;5073806;28;20511;-30
2022/07/23 00:08:57;;;;;;;1.33;0.50;;;;;;;15.29;100.00;102009.03;5074073;28;20044;-30
2022/07/23 00:11:27;;;;;;;2.28;0.70;;;;;;;15.29;100.00;102009.03;5074445;28;20051;-32
2022/07/23 00:13:55;;;;;;;1.85;0.70;;;;;;;15.26;100.00;102010.47;5073141;28;20050;-37
2022/07/23 00:16:23;;;;;;;1.90;0.70;;;;;;;15.25;100.00;102003.16;5073259;28;20055;-30
2022/07/23 00:18:51;;;;;;;2.13;0.80;;;;;;;15.25;100.00;102005.13;5073424;28;20071;-31
2022/07/23 00:21:19;;;;;;;2.15;0.68;;;;;;;15.24;100.00;102003.47;5074299;28;20046;-30
2022/07/23 00:23:47;;;;;;;1.75;0.70;;;;;;;15.22;100.00;102000.94;5073964;28;20048;-40
2022/07/23 00:26:15;;;;;;;1.70;0.77;;;;;;;15.21;100.00;101992.81;5073358;28;20068;-31
2022/07/23 00:28:44;;;;;;;1.77;0.77;;;;;;;15.19;100.00;101992.31;5072614;28;20082;-35
2022/07/23 00:31:12;;;;;;;1.33;0.60;;;;;;;15.16;100.00;101985.31;5073250;28;20424;-35
2022/07/23 00:33:40;;;;;;;1.88;0.77;;;;;;;15.15;100.00;101981.66;5072108;28;20032;-31
2022/07/23 00:36:08;;;;;;;1.75;0.80;;;;;;;15.14;100.00;101984.78;5073841;28;20059;-35
2022/07/23 00:38:36;;;;;;;1.55;0.70;;;;;;;15.13;100.00;101989.56;5072671;28;20076;-37
2022/07/23 00:41:04;;;;;;;1.48;0.70;;;;;;;15.10;100.00;101980.88;5072777;28;20040;-36
2022/07/23 00:43:32;;;;;;;2.00;0.82;;;;;;;15.07;100.00;101976.69;5073938;28;20080;-39
2022/07/23 00:46:01;;;;;;;2.67;0.90;;;;;;;15.05;100.00;101978.13;5072410;28;20482;-36
2022/07/23 00:48:29;;;;;;;2.75;0.77;;;;;;;15.00;100.00;101984.66;5072837;28;20052;-36
2022/07/23 00:50:57;;;;;;;2.13;0.90;;;;;;;14.99;100.00;101984.97;5072035;28;20123;-30
2022/07/23 00:53:25;;;;;;;3.22;1.13;;;;;;;14.95;100.00;101984.75;5073707;28;20045;-34
2022/07/23 00:55:54;;;;;;;2.08;1.10;;;;;;;14.92;100.00;101984.50;5072395;28;20045;-33
2022/07/23 00:58:22;;;;;;;2.40;1.10;;;;;;;14.90;100.00;101987.63;5072419;28;20050;-31
2022/07/23 01:00:50;;;;;;;4.60;1.13;;;;;;;14.88;100.00;101980.63;5071828;28;20047;-31
2022/07/23 01:03:19;;;;;;;2.42;1.17;;;;;;;14.86;100.00;101977.28;5071529;28;20535;-30
2022/07/23 01:05:47;;;;;;;2.30;0.80;;;;;;;14.82;100.00;101974.22;5071728;28;20048;-30
2022/07/23 01:08:15;;;;;;;2.42;1.00;;;;;;;14.80;100.00;101982.13;5072698;28;20114;-29
2022/07/23 01:10:43;;;;;;;2.85;1.40;;;;;;;14.78;100.00;101970.38;5073183;28;20047;-30
2022/07/23 01:13:11;;;;;;;2.42;1.00;;;;;;;14.73;100.00;101971.25;5072148;28;20052;-30
2022/07/23 01:15:40;;;;;;;2.00;0.98;;;;;;;14.70;100.00;101966.25;5070772;28;20079;-30
2022/07/23 01:18:09;;;;;;;2.20;0.98;;;;;;;14.67;100.00;101960.38;5072002;28;20517;-31
2022/07/23 01:20:40;;;;;;;1.83;0.90;;;;;;;14.63;100.00;101956.50;5071389;28;20105;-30
2022/07/23 01:23:10;;;;;;;2.67;0.90;;;;;;;14.58;100.00;101957.41;5071239;28;20079;-28
2022/07/23 01:25:49;;;;;;;2.40;1.10;;;;;;;14.54;100.00;101959.13;5071549;28;20048;-33
2022/07/23 01:28:16;;;;;;;2.20;1.30;;;;;;;14.48;100.00;101955.53;5068699;28;20048;-38
2022/07/23 01:30:45;;;;;;;2.03;0.95;;;;;;;14.45;100.00;101952.50;5070806;28;20417;-31
2022/07/23 01:33:13;;;;;;;2.13;0.90;;;;;;;14.41;100.00;101954.22;5071152;28;20045;-29
2022/07/23 01:35:41;;;;;;;2.22;1.02;;;;;;;14.37;100.00;101961.56;5071577;28;20051;-30
2022/07/23 01:38:11;;;;;;;1.65;0.80;;;;;;;14.32;100.00;101961.59;5070615;28;20044;-32
2022/07/23 01:40:41;;;;;;;1.83;0.80;;;;;;;14.27;100.00;101964.47;5071305;28;20041;-30
2022/07/23 01:43:10;;;;;;;2.50;1.00;;;;;;;14.24;100.00;101968.69;5070477;28;20048;-33
2022/07/23 01:45:39;;;;;;;2.05;1.00;;;;;;;14.23;100.00;101974.59;5071115;28;20048;-32
2022/07/23 01:48:08;;;;;;;2.65;1.10;;;;;;;14.19;100.00;101967.94;5070931;28;20049;-30
2022/07/23 01:50:42;;;;;;;2.10;0.95;;;;;;;14.17;100.00;101961.78;5050830;28;20498;-30
2022/07/23 01:53:27;;;;;;;2.00;1.00;;;;;;;14.13;100.00;101965.16;5067933;28;20114;-30
2022/07/23 01:55:54;;;;;;;2.53;1.17;;;;;;;14.09;100.00;101964.09;5052288;28;20597;-31
2022/07/23 01:58:22;;;;;;;2.20;1.00;;;;;;;14.09;100.00;101958.47;5071139;28;20454;-33
2022/07/23 02:00:50;;;;;;;1.90;0.90;;;;;;;14.07;100.00;101957.94;5071202;28;20057;-31
2022/07/23 02:03:19;;;;;;;1.80;0.90;;;;;;;14.04;100.00;101955.72;5072047;28;20436;-30
2022/07/23 02:05:49;;;;;;;1.75;0.90;;;;;;;14.02;100.00;101951.53;5071621;28;20063;-30
2022/07/23 02:08:17;;;;;;;2.38;1.00;;;;;;;13.98;100.00;101947.66;5070530;28;20048;-32
2022/07/23 02:10:47;;;;;;;2.00;0.90;;;;;;;13.95;100.00;101943.47;5072106;28;20417;-32
2022/07/23 02:13:15;;;;;;;1.88;0.90;;;;;;;13.91;100.00;101948.00;5071248;28;20497;-32
2022/07/23 02:15:46;;;;;;;2.28;1.05;;;;;;;13.87;100.00;101948.88;5072168;28;20072;-31
2022/07/23 02:18:14;;;;;;;2.63;1.23;;;;;;;13.81;100.00;101945.25;5070396;28;20101;-32
2022/07/23 02:20:42;;;;;;;2.40;1.33;;;;;;;13.77;100.00;101935.78;5070100;28;20139;-31
2022/07/23 02:23:10;;;;;;;2.50;1.20;;;;;;;13.74;100.00;101941.97;5071310;28;20135;-33
2022/07/23 02:25:38;;;;;;;2.20;1.20;;;;;;;13.70;100.00;101950.13;5071447;28;20052;-32
2022/07/23 02:28:07;;;;;;;2.00;1.00;;;;;;;13.68;100.00;101952.41;5070459;28;20482;-35
2022/07/23 02:30:36;;;;;;;3.08;1.20;;;;;;;13.66;100.00;101949.03;5071974;28;20084;-36
2022/07/23 02:33:04;;;;;;;2.40;1.10;;;;;;;13.66;100.00;101953.81;5069336;28;20049;-38
2022/07/23 02:35:31;;;;;;;2.40;1.05;;;;;;;13.65;100.00;101950.19;5070365;28;20048;-31
2022/07/23 02:38:02;;;;;;;2.53;1.17;;;;;;;13.65;100.00;101950.19;5070340;28;20131;-34
2022/07/23 02:40:31;;;;;;;1.90;1.20;;;;;;;13.66;100.00;101956.63;5068729;28;20048;-34
2022/07/23 02:42:59;;;;;;;2.47;1.10;;;;;;;13.67;100.00;101955.50;5071728;28;20064;-39
2022/07/23 02:45:30;;;;;;;2.38;1.27;;;;;;;13.68;100.00;101954.38;5070128;28;20056;-32
2022/07/23 02:47:58;;;;;;;2.80;1.90;;;;;;;13.68;100.00;101957.16;5069305;28;20052;-40
2022/07/23 02:50:27;;;;;;;3.03;1.70;;;;;;;13.70;100.00;101960.53;5069885;28;20590;-30
2022/07/23 02:52:57;;;;;;;2.45;1.70;;;;;;;13.71;100.00;101965.00;5069908;28;20147;-31
2022/07/23 02:55:25;;;;;;;2.75;1.40;;;;;;;13.73;100.00;101969.19;5069393;28;20072;-34
2022/07/23 02:57:54;;;;;;;3.08;1.73;;;;;;;13.75;100.00;101975.34;5070123;28;20494;-33
2022/07/23 03:00:22;;;;;;;3.05;2.13;;;;;;;13.78;100.00;101973.94;5071101;28;20045;-38
2022/07/23 03:02:51;;;;;;;2.50;1.80;;;;;;;13.80;100.00;101972.47;5070667;28;20058;-38
2022/07/23 03:05:19;;;;;;;2.45;1.70;;;;;;;13.83;100.00;101970.22;5069942;28;20044;-35
2022/07/23 03:07:48;;;;;;;3.08;1.88;;;;;;;13.85;100.00;101976.38;5069464;28;20047;-36
2022/07/23 03:10:16;;;;;;;2.42;1.50;;;;;;;13.86;100.00;101975.25;5069730;28;20040;-32
2022/07/23 03:12:45;;;;;;;2.20;1.30;;;;;;;13.85;100.00;101976.38;5070086;28;20048;-36
2022/07/23 03:15:13;;;;;;;2.47;1.30;;;;;;;13.82;100.00;101972.19;5069409;28;20078;-35
2022/07/23 03:17:41;;;;;;;1.65;1.08;;;;;;;13.82;100.00;101975.00;5068337;28;20055;-39
2022/07/23 03:20:11;;;;;;;4.50;2.03;;;;;;;13.80;100.00;101977.25;5067753;28;20045;-36
2022/07/23 03:22:39;;;;;;;2.78;1.65;;;;;;;13.79;100.00;101981.19;5068229;28;20458;-34
2022/07/23 03:25:09;;;;;;;1.95;1.30;;;;;;;13.77;100.00;101986.28;5069839;28;20127;-34
2022/07/23 03:27:36;;;;;;;2.83;1.30;;;;;;;13.75;100.00;101980.97;5069772;28;20459;-32
2022/07/23 03:30:05;;;;;;;2.72;1.40;;;;;;;13.76;100.00;101976.19;5068296;28;20045;-37
2022/07/23 03:32:34;;;;;;;2.08;1.30;;;;;;;13.75;100.00;101988.53;5067893;28;20445;-32
2022/07/23 03:35:02;;;;;;;1.70;1.27;;;;;;;13.74;100.00;101989.66;5067918;28;20044;-32
2022/07/23 03:37:31;;;;;;;2.08;1.25;;;;;;;13.73;100.00;101991.63;5067437;28;20048;-36
2022/07/23 03:40:00;;;;;;;2.38;1.50;;;;;;;13.71;100.00;101982.66;5069709;28;20044;-37
2022/07/23 03:42:29;;;;;;;2.28;1.35;;;;;;;13.71;100.00;101979.03;5069013;28;20040;-38
2022/07/23 03:44:57;;;;;;;2.40;1.35;;;;;;;13.69;100.00;101981.28;5068633;28;20052;-34
2022/07/23 03:47:25;;;;;;;1.70;1.02;;;;;;;13.67;100.00;101990.00;5069436;28;20387;-35
2022/07/23 03:49:53;;;;;;;4.15;1.17;;;;;;;13.64;100.00;101989.72;5068965;28;20139;-38
2022/07/23 03:52:21;;;;;;;2.72;1.25;;;;;;;13.60;100.00;101985.84;5066198;28;20460;-29
2022/07/23 03:54:53;;;;;;;1.83;1.15;;;;;;;13.57;100.00;101981.66;5066347;28;20080;-34
2022/07/23 03:57:23;;;;;;;2.17;1.03;;;;;;;13.53;100.00;101983.38;5069129;28;20512;-29
2022/07/23 03:59:51;;;;;;;1.77;1.10;;;;;;;13.51;100.00;101982.00;5069800;28;20102;-34
2022/07/23 04:02:19;;;;;;;3.15;1.30;;;;;;;13.48;100.00;101979.75;5069711;28;20048;-34
2022/07/23 04:04:47;;;;;;;1.80;1.10;;;;;;;13.46;100.00;101982.84;5073982;28;20045;-32
2022/07/23 04:07:17;;;;;;;3.33;1.40;;;;;;;13.44;100.00;101983.16;5072771;28;20041;-36
2022/07/23 04:09:45;;;;;;;2.17;1.23;;;;;;;13.43;100.00;101978.66;5073434;28;20489;-38
2022/07/23 04:12:15;;;;;;;2.35;1.20;;;;;;;13.45;100.00;101981.19;5071955;28;20493;-36
2022/07/23 04:14:43;;;;;;;2.30;1.30;;;;;;;13.45;100.00;101981.19;5073228;28;20139;-33
2022/07/23 04:17:11;;;;;;;2.50;1.27;;;;;;;13.47;100.00;101981.72;5074058;28;20066;-33
2022/07/23 04:19:41;;;;;;;2.78;1.45;;;;;;;13.47;100.00;101978.09;5072393;28;20052;-38
2022/07/23 04:22:10;;;;;;;2.75;1.15;;;;;;;13.50;100.00;101978.34;5072759;28;20048;-31
2022/07/23 04:24:39;;;;;;;1.90;1.20;;;;;;;13.52;100.00;101975.25;5073181;28;20074;-36
2022/07/23 04:27:07;;;;;;;3.20;1.20;;;;;;;13.54;100.00;101973.84;5071891;28;20048;-34
2022/07/23 04:29:36;;;;;;;2.15;1.50;;;;;;;13.58;100.00;101977.75;5072980;28;20567;-35
2022/07/23 04:32:04;;;;;;;2.25;1.25;;;;;;;13.61;100.00;101979.09;5073018;28;20480;-37
2022/07/23 04:34:33;;;;;;;2.05;1.10;;;;;;;13.62;100.00;101978.81;5072811;28;20079;-33
2022/07/23 04:37:01;;;;;;;1.95;1.30;;;;;;;13.63;100.00;101972.06;5073867;28;20045;-35
2022/07/23 04:39:31;;;;;;;2.50;1.20;;;;;;;13.67;100.00;101975.97;5072226;28;20049;-37
2022/07/23 04:41:59;;;;;;;1.88;0.95;;;;;;;13.69;100.00;101981.28;5072369;28;20088;-36
2022/07/23 04:44:28;;;;;;;1.73;0.90;;;;;;;13.71;100.00;101977.06;5072525;28;20190;-35
2022/07/23 04:46:57;;;;;;;2.78;1.10;;;;;;;13.75;100.00;101975.34;5071399;28;20052;-37
2022/07/23 04:49:26;;;;;;;1.42;0.85;;;;;;;13.78;100.00;101979.53;5072580;28;20603;-34
2022/07/23 04:51:54;;;;;;;1.58;0.80;;;;;;;13.83;100.00;101979.47;5072566;28;20063;-35
2022/07/23 04:54:22;;;;;;;2.15;0.98;;;;;;;13.91;100.00;101981.66;5072940;28;20125;-32
2022/07/23 04:56:51;;;;;;;2.42;0.90;;;;;;;13.98;100.00;101984.97;5072530;28;20044;-38
2022/07/23 04:59:19;;;;;;;1.52;0.85;;;;;;;14.05;100.00;101977.03;5071873;28;20047;-36
2022/07/23 05:01:50;;;;;;;1.53;0.70;;;;;;;14.13;100.00;101986.78;5071463;28;20143;-37
2022/07/23 05:04:20;;;;;;;1.38;0.65;;;;;;;14.20;100.00;101990.06;5072139;28;20044;-32
2022/07/23 05:06:48;;;;;;;1.77;0.70;;;;;;;14.28;100.00;101988.59;5072500;28;20098;-37
2022/07/23 05:09:16;;;;;;;1.20;0.60;;;;;;;14.37;100.00;101992.44;5072330;28;20422;-35
2022/07/23 05:11:44;;;;;;;1.45;0.50;;;;;;;14.45;100.00;101987.03;5072136;28;20056;-34
2022/07/23 05:14:13;;;;;;;1.45;0.50;;;;;;;14.55;100.00;101976.84;5070164;28;20094;-33
2022/07/23 05:16:41;;;;;;;0.98;0.52;;;;;;;14.64;100.00;101978.66;5072388;28;20509;-35
2022/07/23 05:19:15;;;;;;;1.70;0.80;;;;;;;14.72;100.00;101978.00;5071605;28;20055;-36
2022/07/23 05:21:44;;;;;;;1.73;0.65;;;;;;;14.79;100.00;101978.47;5071159;28;20053;-38
2022/07/23 05:24:13;;;;;;;1.50;0.60;;;;;;;14.87;100.00;101976.97;5070090;28;20037;-35
2022/07/23 05:26:41;;;;;;;1.73;0.65;;;;;;;14.94;100.00;101979.44;5071773;28;20056;-33
2022/07/23 05:29:09;;;;;;;2.55;0.70;;;;;;;14.98;100.00;101978.53;5070859;28;20045;-34
2022/07/23 05:31:37;;;;;;;1.05;0.50;;;;;;;15.03;100.00;101972.81;5071732;28;20050;-36
2022/07/23 05:34:06;;;;;;;1.77;0.50;;;;;;;15.07;100.00;101979.50;5071316;28;20052;-39
2022/07/23 05:36:35;;;;;;;1.27;0.50;;;;;;;15.11;100.00;101980.59;5067307;28;20136;-39
2022/07/23 05:39:05;;;;;;;1.10;0.55;;;;;;;15.16;100.00;101988.97;5068224;28;20040;-34
2022/07/23 05:41:36;;;;;;;1.17;0.57;;;;;;;15.20;100.00;101986.34;5071225;28;20052;-39
2022/07/23 05:44:04;;;;;;;1.00;0.40;;;;;;;15.28;100.00;101984.84;5071879;28;20042;-42
2022/07/23 05:46:34;;;;;;;1.33;0.50;;;;;;;15.35;100.00;101980.53;5070512;28;20071;-34
2022/07/23 05:49:06;;;;;;;2.00;0.50;;;;;;;15.44;100.00;101989.09;5070326;28;20229;-36
2022/07/23 05:52:04;;;;;;;2.00;1.02;;;;;;;15.55;100.00;101989.78;5056744;28;20056;-36
2022/07/23 05:54:53;;;;;;;2.13;0.70;;;;;;;15.63;100.00;101991.94;5072203;28;20060;-36
2022/07/23 05:57:22;;;;;;;1.35;0.60;;;;;;;15.73;100.00;102000.22;5070456;28;20049;-40
2022/07/23 05:59:52;;;;;;;1.20;0.50;;;;;;;15.84;100.00;101998.91;5070431;28;20497;-32
2022/07/23 06:02:20;;;;;;;1.45;0.60;;;;;;;15.97;100.00;101992.50;5067258;28;20060;-37
2022/07/23 06:04:48;;;;;;;1.58;0.45;;;;;;;16.06;100.00;101996.28;5071377;28;20048;-33
2022/07/23 06:07:27;;;;;;;1.20;0.40;;;;;;;16.13;100.00;101991.09;5071917;28;20139;-34
2022/07/23 06:09:56;;;;;;;1.00;0.30;;;;;;;16.23;100.00;101994.84;5069531;28;20041;-33
2022/07/23 06:12:25;;;;;;;2.00;0.40;;;;;;;16.33;100.00;101989.03;5069643;28;20563;-34
2022/07/23 06:14:55;;;;;;;1.50;0.50;;;;;;;16.43;100.00;101995.28;5069767;28;20547;-40
2022/07/23 06:17:23;;;;;;;1.65;0.45;;;;;;;16.56;100.00;102004.94;5070455;28;20198;-34
2022/07/23 06:19:52;;;;;;;2.33;0.57;;;;;;;16.71;100.00;101998.19;5068399;28;20052;-36
2022/07/23 06:22:20;;;;;;;1.50;0.50;;;;;;;16.86;100.00;101990.22;5067726;28;20035;-33
2022/07/23 06:24:48;;;;;;;1.27;0.40;;;;;;;17.01;100.00;101996.69;5069364;28;20448;-38
2022/07/23 06:27:17;;;;;;;2.22;0.50;;;;;;;17.13;100.00;101999.81;5069613;28;20045;-32
2022/07/23 06:29:52;;;;;;;1.08;0.40;;;;;;;17.26;100.00;101993.31;5070721;28;20052;-34
2022/07/23 06:32:20;;;;;;;2.03;0.40;;;;;;;17.38;100.00;102002.06;5068387;28;20052;-35
2022/07/23 06:34:48;;;;;;;2.25;0.43;;;;;;;17.55;100.00;102007.03;5071458;28;20496;-32
2022/07/23 06:37:16;;;;;;;1.83;0.50;;;;;;;17.74;100.00;102006.91;5071365;28;20474;-32
2022/07/23 06:39:46;;;;;;;1.42;0.40;;;;;;;18.05;100.00;102010.59;5070070;28;20714;-31
2022/07/23 06:42:14;;;;;;;2.00;0.50;;;;;;;18.42;100.00;102005.66;5069965;28;20044;-31
2022/07/23 06:44:47;;;;;;;1.35;0.40;;;;;;;18.89;100.00;102006.91;5069420;28;20049;-31
2022/07/23 06:47:17;;;;;;;1.23;0.40;;;;;;;19.28;100.00;102006.00;5069311;28;20462;-32
2022/07/23 06:49:45;;;;;;;1.15;0.40;;;;;;;19.67;100.00;102013.56;5070342;28;20048;-36
2022/07/23 06:52:13;;;;;;;1.33;0.40;;;;;;;19.95;100.00;102011.25;5071407;28;20048;-32
2022/07/23 06:54:41;;;;;;;2.00;0.60;;;;;;;20.34;98.46;102012.19;5071065;28;20048;-40
2022/07/23 06:57:08;;;;;;;1.45;0.40;;;;;;;20.57;95.49;102013.66;5071506;28;20041;-33
2022/07/23 06:59:40;;;;;;;1.45;0.50;;;;;;;20.78;94.29;102014.56;5071477;28;20465;-31
2022/07/23 07:02:10;;;;;;;1.50;0.40;;;;;;;21.24;93.08;102015.66;5071243;28;20160;-32
2022/07/23 07:04:38;;;;;;;1.10;0.38;;;;;;;21.86;91.10;102023.38;5070406;28;20052;-33
2022/07/23 07:07:06;;;;;;;1.35;0.30;;;;;;;22.48;87.43;102031.00;5070379;28;20051;-32
2022/07/23 07:09:34;;;;;;;1.05;0.40;;;;;;;23.16;83.79;102028.50;5071426;28;20474;-32
2022/07/23 07:12:02;;;;;;;1.13;0.20;;;;;;;23.83;78.84;102041.19;5071421;28;20131;-33
2022/07/23 07:14:29;;;;;;;0.82;0.30;;;;;;;24.11;75.49;102032.69;5070452;28;20083;-37
2022/07/23 07:16:57;;;;;;;1.00;0.30;;;;;;;24.11;73.65;102033.50;5071060;28;20055;-32
2022/07/23 07:19:26;;;;;;;1.38;0.30;;;;;;;23.96;73.50;102035.13;5071180;28;20048;-40
2022/07/23 07:21:54;;;;;;;1.77;0.30;;;;;;;23.76;73.50;102029.59;5070474;28;20446;-32
2022/07/23 07:24:22;;;;;;;1.80;0.30;;;;;;;23.52;73.13;102039.88;5071234;28;20070;-32
2022/07/23 07:26:56;;;;;;;0.60;0.20;;;;;;;23.47;73.54;102039.25;5051438;28;20231;-33
2022/07/23 07:29:24;;;;;;;0.70;0.30;;;;;;;23.78;73.34;102041.47;5069904;28;20053;-36
2022/07/23 07:31:51;;;;;;;1.15;0.35;;;;;;;24.36;71.13;102043.66;5071367;28;20045;-38
2022/07/23 07:34:19;;;;;;;1.17;0.40;;;;;;;24.82;68.12;102055.47;5070957;28;20135;-32
2022/07/23 07:36:49;;;;;;;1.30;0.30;;;;;;;25.13;65.12;102045.28;5070622;28;20059;-32
2022/07/23 07:39:17;;;;;;;1.05;0.40;;;;;;;25.15;63.17;102054.31;5074530;28;20545;-35
2022/07/23 07:41:45;;;;;;;1.23;0.40;;;;;;;25.04;64.31;102060.56;5061346;28;20059;-35
2022/07/23 07:44:13;;;;;;;0.90;0.30;;;;;;;24.90;64.24;102062.22;5068486;28;20082;-37
2022/07/23 07:46:41;;;;;;;0.85;0.20;;;;;;;24.81;64.22;102065.22;5074946;28;20143;-32
2022/07/23 07:49:09;;;;;;;2.00;0.40;;;;;;;24.99;63.98;102058.00;5073919;28;20102;-31
2022/07/23 07:51:42;;;;;;;0.55;0.20;;;;;;;25.48;63.02;102062.47;5075092;28;20105;-31
2022/07/23 07:54:13;;;;;;;1.90;0.50;;;;;;;25.87;59.78;102054.81;5074529;28;20448;-31
2022/07/23 07:56:41;;;;;;;0.60;0.20;;;;;;;26.09;58.33;102065.50;5074536;28;20052;-37
2022/07/23 07:59:11;;;;;;;1.10;0.30;;;;;;;26.28;56.84;102061.81;5074508;28;20083;-33
2022/07/23 08:01:38;;;;;;;0.93;0.30;;;;;;;26.44;57.57;102071.16;5074853;28;20446;-36
2022/07/23 08:04:06;;;;;;;1.00;0.30;;;;;;;26.64;56.17;102071.97;5073499;28;20040;-36
2022/07/23 08:06:34;;;;;;;0.70;0.20;;;;;;;26.57;54.25;102074.72;5074588;28;20130;-37
2022/07/23 08:09:02;;;;;;;1.58;0.30;;;;;;;26.63;55.56;102073.16;5074110;28;20485;-38
2022/07/23 08:11:31;;;;;;;1.58;0.30;;;;;;;27.12;54.52;102069.59;5073762;28;20438;-39
2022/07/23 08:13:59;;;;;;;0.95;0.30;;;;;;;27.66;52.53;102070.09;5074378;28;20136;-32
2022/07/23 08:16:27;;;;;;;0.85;0.30;;;;;;;28.17;51.05;102063.81;5074232;28;20053;-32
2022/07/23 08:18:55;;;;;;;1.20;0.30;;;;;;;28.60;48.43;102067.19;5073412;28;20044;-34
2022/07/23 08:21:23;;;;;;;0.93;0.30;;;;;;;28.95;47.82;102066.78;5073890;28;20056;-32
2022/07/23 08:23:51;;;;;;;0.60;0.20;;;;;;;29.31;46.58;102057.22;5074415;28;20072;-32
2022/07/23 08:26:19;;;;;;;0.70;0.30;;;;;;;29.68;45.68;102062.84;5072109;28;20055;-40
2022/07/23 08:28:48;;;;;;;1.27;0.32;;;;;;;30.00;44.31;102063.03;5074230;28;20048;-35
2022/07/23 08:31:17;;;;;;;0.57;0.20;;;;;;;30.19;43.17;102059.00;5072700;28;20051;-40
2022/07/23 08:33:45;;;;;;;1.85;0.38;;;;;;;30.19;43.37;102066.81;5073565;28;20074;-35
2022/07/23 08:36:13;;;;;;;1.10;0.30;;;;;;;30.12;42.16;102056.94;5073741;28;20489;-32
2022/07/23 08:38:41;;;;;;;1.20;0.30;;;;;;;30.09;42.16;102065.56;5073526;28;20056;-39
2022/07/23 08:41:09;;;;;;;0.82;0.20;;;;;;;30.01;41.53;102063.88;5073638;28;20462;-40
2022/07/23 08:43:36;;;;;;;1.45;0.30;;;;;;;30.07;42.16;102073.78;5074042;28;20043;-33
2022/07/23 08:46:06;;;;;;;1.98;0.25;;;;;;;30.31;41.90;102070.19;5072900;28;20570;-33
2022/07/23 08:48:36;;;;;;;1.30;0.25;;;;;;;30.63;40.67;102072.34;5073684;28;20122;-33
2022/07/23 08:51:07;;;;;;;1.40;0.30;;;;;;;30.65;40.28;102069.88;5073018;28;20086;-31
2022/07/23 08:53:37;;;;;;;1.33;0.30;;;;;;;30.88;40.61;102064.59;5073118;28;20075;-31
2022/07/23 08:56:05;;;;;;;1.17;0.20;;;;;;;31.29;39.55;102067.09;5073294;28;20059;-33
2022/07/23 08:58:35;;;;;;;2.42;0.63;;;;;;;31.65;38.70;102067.88;5073701;28;20397;-37
2022/07/23 09:01:03;;;;;;;1.13;0.40;;;;;;;31.61;38.41;102067.88;5072228;28;20044;-38
2022/07/23 09:03:35;;;;;;;0.85;0.30;;;;;;;31.35;38.09;102063.38;5073734;28;20060;-32
2022/07/23 09:06:03;;;;;;;0.52;0.17;;;;;;;31.22;38.88;102070.78;5073031;28;20417;-42
2022/07/23 09:08:41;;;;;;;1.27;0.30;;;;;;;31.25;38.05;102057.63;5072635;28;20054;-35
2022/07/23 09:11:11;;;;;;;0.70;0.20;;;;;;;31.28;38.62;102062.56;5072912;28;20159;-32
2022/07/23 09:13:42;;;;;;;0.75;0.22;;;;;;;31.57;37.32;102063.38;5072151;28;20501;-34
2022/07/23 09:16:12;;;;;;;1.33;0.20;;;;;;;31.88;37.15;102065.38;5058412;28;20048;-37
2022/07/23 09:18:44;;;;;;;1.55;0.30;;;;;;;32.11;36.64;102064.88;5072969;28;20040;-38
2022/07/23 09:21:21;;;;;;;1.00;0.20;;;;;;;32.31;35.52;102060.28;5072363;28;20044;-41
2022/07/23 09:23:52;;;;;;;1.67;0.30;;;;;;;32.56;35.63;102065.09;5072573;28;20040;-33
2022/07/23 09:26:24;;;;;;;;;;;;;;;32.73;34.48;102067.03;5073565;28;20119;-34
2022/07/23 09:28:56;;;;;;;0.57;0.20;;;;;;;32.74;35.78;102069.53;5072163;28;19928;-34
2022/07/23 09:31:25;;;;;;;1.50;0.40;;;;;;;32.86;35.22;102069.03;5072838;28;20481;-31
2022/07/23 09:34:07;;;;;;;1.25;0.30;;;;;;;33.15;34.34;102075.44;5072574;28;20056;-33
2022/07/23 09:36:35;;;;;;;1.15;0.30;;;;;;;33.23;35.00;102067.50;5071853;28;20049;-33
2022/07/23 09:39:04;;;;;;;1.10;0.32;;;;;;;32.91;34.86;102073.56;5072656;28;20044;-41
2022/07/23 09:41:37;;;;;;;1.30;0.20;;;;;;;32.80;34.78;102067.00;5072037;28;20106;-33
2022/07/23 09:44:10;;;;;;;0.90;0.28;;;;;;;32.91;34.75;102078.50;5069111;28;20040;-33
2022/07/23 09:46:40;;;;;;;0.60;0.20;;;;;;;33.10;34.37;102078.78;5052916;28;20069;-35
2022/07/23 09:49:15;;;;;;;1.37;0.40;;;;;;;32.96;34.24;102072.28;5071398;28;20379;-37
2022/07/23 09:51:54;;;;;;;1.17;0.32;;;;;;;32.81;33.69;102074.44;5072591;28;20425;-37
2022/07/23 09:54:31;;;;;;;0.90;0.20;;;;;;;32.52;34.99;102073.78;5072160;28;20139;-40
2022/07/23 09:57:00;;;;;;;0.75;0.20;;;;;;;32.34;34.86;102073.88;5052137;28;20049;-38
2022/07/23 09:59:30;;;;;;;1.13;0.30;;;;;;;32.32;35.25;102082.13;5071195;28;20048;-36
2022/07/23 10:02:00;;;;;;;0.90;0.37;;;;;;;32.34;35.18;102078.84;5071986;28;20040;-34
2022/07/23 10:04:33;;;;;;;1.30;0.30;;;;;;;32.43;35.04;102074.22;5069798;28;20072;-39
2022/07/23 10:07:26;;;;;;;0.90;0.28;;;;;;;32.29;35.43;102077.19;5068520;28;20132;-33
2022/07/23 10:10:23;;;;;;;1.40;0.20;;;;;;;32.32;35.13;102081.31;5069988;28;20068;-33
2022/07/23 10:15:48;;;;;;;0.90;0.28;;;;;;;32.41;34.33;102075.88;5068251;28;20124;-36
2022/07/23 10:18:16;;;;;;;0.95;0.20;;;;;;;32.59;34.50;102073.72;5070750;28;20080;-37
2022/07/23 10:20:49;;;;;;;0.55;0.20;;;;;;;32.85;33.81;102075.25;5071717;28;20078;-37
2022/07/23 10:23:28;;;;;;;0.70;0.30;;;;;;;33.10;33.81;102087.44;5071860;28;20044;-33
2022/07/23 10:26:05;;;;;;;0.90;0.20;;;;;;;33.27;33.20;102076.19;5071269;28;20537;-32
2022/07/23 10:28:53;;;;;;;1.40;0.20;;;;;;;33.47;31.96;102080.13;5071541;28;20148;-42
2022/07/23 10:31:35;;;;;;;1.00;0.30;;;;;;;33.21;32.57;102075.78;5067960;28;20041;-36
2022/07/23 10:34:31;;;;;;;0.80;0.20;;;;;;;33.10;32.95;102077.94;5071457;28;20078;-33
2022/07/23 10:37:08;;;;;;;0.43;0.20;;;;;;;33.01;32.21;102072.63;5060834;28;20041;-37
2022/07/23 10:39:37;;;;;;;0.40;0.20;;;;;;;32.81;32.99;102075.25;5070811;28;20135;-33
2022/07/23 10:42:12;;;;;;;1.17;0.30;;;;;;;32.94;33.04;102078.50;5071605;28;20090;-35
2022/07/23 10:44:42;;;;;;;1.30;0.20;;;;;;;33.13;32.96;102077.09;5071157;28;20124;-36
2022/07/23 10:50:18;;;;;;;0.70;0.20;;;;;;;33.10;30.43;102081.66;5060498;28;20083;-41
2022/07/23 10:53:11;;;;;;;0.55;0.20;;;;;;;32.30;31.84;102072.25;5070996;28;20052;-39
2022/07/23 10:55:50;;;;;;;0.55;0.10;;;;;;;31.73;33.59;102081.09;5071039;28;20075;-38
2022/07/23 10:58:20;;;;;;;0.47;0.20;;;;;;;31.39;34.23;102077.78;5071480;28;20049;-40
2022/07/23 11:00:49;;;;;;;0.70;0.28;;;;;;;31.23;33.69;102071.63;5070306;28;20123;-39
2022/07/23 11:03:33;;;;;;;1.65;0.22;;;;;;;31.15;34.32;102077.41;5071364;28;20056;-33
2022/07/23 11:06:01;;;;;;;1.67;0.28;;;;;;;31.19;35.12;102083.16;5070225;28;20048;-32
2022/07/23 11:08:30;;;;;;;1.05;0.20;;;;;;;31.40;33.79;102073.66;5070165;28;20362;-36
2022/07/23 11:11:11;;;;;;;1.33;0.20;;;;;;;31.42;34.27;102072.03;5071018;28;20053;-34
2022/07/23 11:13:47;;;;;;;2.03;0.30;;;;;;;31.51;34.41;102075.31;5069923;28;20516;-32
2022/07/23 11:16:18;;;;;;;0.70;0.20;;;;;;;31.79;33.93;102060.00;5065381;28;20047;-40
2022/07/23 11:18:58;;;;;;;0.43;0.20;;;;;;;31.94;32.60;102057.09;5071594;28;20416;-32
2022/07/23 11:21:48;;;;;;;0.75;0.30;;;;;;;32.02;31.59;102058.72;5070030;28;20066;-37
2022/07/23 11:24:20;;;;;;;1.98;0.30;;;;;;;32.20;31.79;102059.47;5071325;28;20045;-30
2022/07/23 11:26:54;;;;;;;1.23;0.30;;;;;;;32.18;31.42;102061.94;5070860;28;20037;-35
2022/07/23 11:29:54;;;;;;;1.58;0.40;;;;;;;31.81;27.95;102057.53;5071470;28;20136;-30
2022/07/23 11:32:35;;;;;;;1.05;0.30;;;;;;;31.25;31.76;102063.38;5070882;28;20116;-36
2022/07/23 11:35:03;;;;;;;;;;;;;;;30.72;29.94;102055.50;5070835;28;20052;-36
2022/07/23 11:37:37;;;;;;;1.00;0.30;;;;;;;30.49;32.63;102062.41;5070670;28;19924;-32
2022/07/23 11:40:11;;;;;;;1.10;0.30;;;;;;;30.65;32.33;102058.38;5071202;28;20458;-30
2022/07/23 11:42:39;;;;;;;0.38;0.20;;;;;;;30.64;32.94;102054.66;5069914;28;20158;-37